createdAt,value
2018-09-15T00:00:35.869Z,0
2018-09-15T00:01:35.895Z,0
2018-09-15T00:02:35.657Z,0
2018-09-15T00:03:35.933Z,0
2018-09-15T00:04:50.624Z,0
2018-09-15T00:05:35.987Z,0
2018-09-15T00:06:36.001Z,0
2018-09-15T00:07:35.817Z,0
2018-09-15T00:08:36.048Z,0
2018-09-15T00:09:35.554Z,0
2018-09-15T00:10:36.098Z,0
2018-09-15T00:11:36.112Z,0
2018-09-15T00:12:50.792Z,0
2018-09-15T00:13:36.158Z,0
2018-09-15T00:14:35.920Z,0
2018-09-15T00:15:36.206Z,0
2018-09-15T00:16:36.222Z,0
2018-09-15T00:18:50.769Z,0
2018-09-15T00:19:36.296Z,0
2018-09-15T00:20:50.973Z,0
2018-09-15T00:21:36.336Z,0
2018-09-15T00:22:36.364Z,0
2018-09-15T00:23:36.380Z,0
2018-09-15T00:24:36.410Z,0
2018-09-15T00:25:36.169Z,0
2018-09-15T00:27:36.467Z,0
2018-09-15T00:28:36.298Z,0
2018-09-15T00:29:36.515Z,0
2018-09-15T00:30:36.533Z,0
2018-09-15T00:31:36.562Z,0
2018-09-15T00:32:36.326Z,0
2018-09-15T00:33:36.596Z,0
2018-09-15T00:34:36.366Z,0
2018-09-15T00:35:36.645Z,0
2018-09-15T00:37:05.987Z,0
2018-09-15T00:37:36.690Z,0
2018-09-15T00:38:36.715Z,0
2018-09-15T00:39:36.732Z,0
2018-09-15T00:40:36.761Z,0
2018-09-15T00:41:36.783Z,0
2018-09-15T00:42:36.794Z,0
2018-09-15T00:43:36.996Z,0
2018-09-15T00:44:51.505Z,0
2018-09-15T00:45:51.523Z,0
2018-09-15T00:46:51.544Z,0
2018-09-15T00:47:36.659Z,0
2018-09-15T00:48:36.928Z,0
2018-09-15T00:49:36.955Z,0
2018-09-15T00:50:36.714Z,0
2018-09-15T00:51:36.739Z,0
2018-09-15T00:53:06.338Z,0
2018-09-15T00:53:37.040Z,0
2018-09-15T00:54:36.803Z,0
2018-09-15T00:55:37.081Z,0
2018-09-15T00:56:36.591Z,0
2018-09-15T00:57:37.124Z,0
2018-09-15T00:58:51.548Z,0
2018-09-15T00:59:37.220Z,0
2018-09-15T01:01:36.701Z,0
2018-09-15T01:02:37.246Z,0
2018-09-15T01:03:37.259Z,0
2018-09-15T01:04:37.286Z,0
2018-09-15T01:05:37.299Z,0
2018-09-15T01:06:37.067Z,0
2018-09-15T01:07:52.009Z,0
2018-09-15T01:08:52.033Z,0
2018-09-15T01:09:37.390Z,0
2018-09-15T01:10:37.417Z,0
2018-09-15T01:11:37.439Z,0
2018-09-15T01:12:37.461Z,0
2018-09-15T01:13:37.490Z,0
2018-09-15T01:14:37.500Z,0
2018-09-15T01:15:37.525Z,0
2018-09-15T01:16:52.202Z,0
2018-09-15T01:17:37.566Z,0
2018-09-15T01:18:37.584Z,0
2018-09-15T01:19:37.351Z,0
2018-09-15T01:20:37.629Z,0
2018-09-15T01:21:37.400Z,0
2018-09-15T01:22:37.429Z,0
2018-09-15T01:23:37.698Z,0
2018-09-15T01:24:52.385Z,0
2018-09-15T01:25:37.741Z,0
2018-09-15T01:27:37.527Z,0
2018-09-15T01:28:37.809Z,0
2018-09-15T01:29:52.232Z,0
2018-09-15T01:30:52.514Z,0
2018-09-15T01:31:37.610Z,0
2018-09-15T01:32:37.903Z,0
2018-09-15T01:33:52.575Z,0
2018-09-15T01:34:38.044Z,0
2018-09-15T01:35:37.446Z,0
2018-09-15T01:36:37.978Z,0
2018-09-15T01:37:38.004Z,0
2018-09-15T01:38:38.028Z,0
2018-09-15T01:39:52.716Z,0
2018-09-15T01:40:37.812Z,0
2018-09-15T01:41:52.749Z,0
2018-09-15T01:42:38.108Z,0
2018-09-15T01:43:38.143Z,0
2018-09-15T01:44:38.166Z,0
2018-09-15T01:45:37.917Z,0
2018-09-15T01:46:38.198Z,0
2018-09-15T01:47:38.226Z,0
2018-09-15T01:48:38.242Z,0
2018-09-15T01:49:38.266Z,0
2018-09-15T01:50:38.031Z,0
2018-09-15T01:51:38.054Z,0
2018-09-15T01:52:38.332Z,0
2018-09-15T01:53:38.350Z,0
2018-09-15T01:54:38.374Z,0
2018-09-15T01:55:38.143Z,0
2018-09-15T01:56:38.419Z,0
2018-09-15T01:57:38.833Z,0
2018-09-15T01:58:38.482Z,0
2018-09-15T01:59:38.480Z,0
2018-09-15T02:00:38.261Z,0
2018-09-15T02:01:38.270Z,0
2018-09-15T02:02:38.546Z,0
2018-09-15T02:03:38.570Z,0
2018-09-15T02:04:53.252Z,0
2018-09-15T02:05:38.611Z,0
2018-09-15T02:06:38.380Z,0
2018-09-15T02:07:38.407Z,0
2018-09-15T02:08:38.683Z,0
2018-09-15T02:09:38.699Z,0
2018-09-15T02:10:38.573Z,0
2018-09-15T02:11:53.409Z,0
2018-09-15T02:12:38.762Z,0
2018-09-15T02:13:38.785Z,0
2018-09-15T02:14:38.549Z,0
2018-09-15T02:15:53.487Z,0
2018-09-15T02:16:38.848Z,0
2018-09-15T02:17:38.872Z,0
2018-09-15T02:18:38.638Z,0
2018-09-15T02:19:38.914Z,0
2018-09-15T02:21:38.704Z,0
2018-09-15T02:22:39.328Z,0
2018-09-15T02:23:38.746Z,0
2018-09-15T02:24:38.769Z,0
2018-09-15T02:26:39.075Z,0
2018-09-15T02:27:53.747Z,0
2018-09-15T02:28:39.107Z,0
2018-09-15T02:29:39.132Z,0
2018-09-15T02:30:39.160Z,0
2018-09-15T02:31:39.179Z,0
2018-09-15T02:32:39.201Z,0
2018-09-15T02:33:39.218Z,0
2018-09-15T02:34:38.992Z,0
2018-09-15T02:35:39.258Z,0
2018-09-15T02:36:38.768Z,0
2018-09-15T02:37:53.709Z,0
2018-09-15T02:38:39.328Z,0
2018-09-15T02:39:38.834Z,0
2018-09-15T02:40:39.111Z,0
2018-09-15T02:41:39.497Z,0
2018-09-15T02:42:39.153Z,0
2018-09-15T02:43:54.089Z,0
2018-09-15T02:44:54.113Z,0
2018-09-15T02:45:39.221Z,0
2018-09-15T02:46:53.642Z,0
2018-09-15T02:47:39.305Z,0
2018-09-15T02:48:39.538Z,0
2018-09-15T02:49:39.301Z,0
2018-09-15T02:50:39.070Z,0
2018-09-15T02:51:54.262Z,0
2018-09-15T02:52:54.284Z,0
2018-09-15T02:53:39.650Z,0
2018-09-15T02:54:39.498Z,0
2018-09-15T02:55:39.733Z,0
2018-09-15T02:56:39.728Z,0
2018-09-15T02:58:39.494Z,0
2018-09-15T02:59:54.431Z,0
2018-09-15T03:00:39.537Z,0
2018-09-15T03:01:39.559Z,0
2018-09-15T03:02:39.840Z,0
2018-09-15T03:04:39.898Z,0
2018-09-15T03:05:39.906Z,0
2018-09-15T03:07:39.950Z,0
2018-09-15T03:08:39.724Z,0
2018-09-15T03:09:39.986Z,0
2018-09-15T03:10:40.183Z,0
2018-09-15T03:11:40.027Z,0
2018-09-15T03:12:40.066Z,0
2018-09-15T03:13:40.105Z,0
2018-09-15T03:14:54.757Z,0
2018-09-15T03:15:39.852Z,0
2018-09-15T03:16:54.794Z,0
2018-09-15T03:17:39.902Z,0
2018-09-15T03:18:40.178Z,0
2018-09-15T03:19:40.196Z,0
2018-09-15T03:20:40.219Z,0
2018-09-15T03:21:40.257Z,0
2018-09-15T03:22:40.261Z,0
2018-09-15T03:23:54.954Z,0
2018-09-15T03:24:54.702Z,0
2018-09-15T03:25:40.327Z,0
2018-09-15T03:26:39.844Z,0
2018-09-15T03:27:40.106Z,0
2018-09-15T03:28:40.384Z,0
2018-09-15T03:29:40.412Z,0
2018-09-15T03:30:40.173Z,0
2018-09-15T03:31:40.463Z,0
2018-09-15T03:32:55.216Z,0
2018-09-15T03:33:39.979Z,0
2018-09-15T03:34:55.186Z,0
2018-09-15T03:35:40.274Z,0
2018-09-15T03:36:40.298Z,0
2018-09-15T03:37:40.574Z,0
2018-09-15T03:38:40.604Z,0
2018-09-15T03:39:40.616Z,0
2018-09-15T03:40:40.386Z,0
2018-09-15T03:41:41.465Z,0
2018-09-15T03:42:40.679Z,0
2018-09-15T03:43:40.708Z,0
2018-09-15T03:44:40.742Z,0
2018-09-15T03:46:55.484Z,0
2018-09-15T03:47:40.533Z,0
2018-09-15T03:48:40.296Z,0
2018-09-15T03:49:40.839Z,0
2018-09-15T03:50:40.600Z,0
2018-09-15T03:51:40.616Z,0
2018-09-15T03:52:40.891Z,0
2018-09-15T03:53:40.657Z,0
2018-09-15T03:54:40.940Z,0
2018-09-15T03:55:40.697Z,0
2018-09-15T03:56:55.642Z,0
2018-09-15T03:57:40.990Z,0
2018-09-15T03:58:41.013Z,0
2018-09-15T03:59:40.522Z,0
2018-09-15T04:00:41.058Z,0
2018-09-15T04:01:40.822Z,0
2018-09-15T04:02:55.504Z,0
2018-09-15T04:03:41.121Z,0
2018-09-15T04:04:41.138Z,0
2018-09-15T04:05:41.164Z,0
2018-09-15T04:06:41.200Z,4
2018-09-15T04:07:41.201Z,4
2018-09-15T04:08:41.223Z,0
2018-09-15T04:09:40.984Z,4
2018-09-15T04:10:41.264Z,4
2018-09-15T04:11:41.032Z,4
2018-09-15T04:12:55.967Z,8
2018-09-15T04:13:41.343Z,4
2018-09-15T04:14:41.352Z,8
2018-09-15T04:15:56.035Z,12
2018-09-15T04:16:41.146Z,12
2018-09-15T04:17:41.175Z,12
2018-09-15T04:18:56.092Z,12
2018-09-15T04:19:41.466Z,16
2018-09-15T04:20:55.876Z,20
2018-09-15T04:21:41.242Z,24
2018-09-15T04:23:41.543Z,32
2018-09-15T04:24:41.554Z,36
2018-09-15T04:25:41.582Z,44
2018-09-15T04:26:41.611Z,48
2018-09-15T04:27:41.624Z,52
2018-09-15T04:28:41.604Z,64
2018-09-15T04:29:41.409Z,72
2018-09-15T04:30:41.422Z,80
2018-09-15T04:31:41.451Z,92
2018-09-15T04:32:41.475Z,100
2018-09-15T04:33:41.749Z,112
2018-09-15T04:34:56.424Z,124
2018-09-15T04:35:41.271Z,128
2018-09-15T04:36:41.553Z,136
2018-09-15T04:37:41.825Z,140
2018-09-15T04:38:56.513Z,136
2018-09-15T04:39:41.873Z,136
2018-09-15T04:40:41.898Z,132
2018-09-15T04:42:41.673Z,124
2018-09-15T04:43:56.611Z,116
2018-09-15T04:44:41.976Z,116
2018-09-15T04:45:41.731Z,128
2018-09-15T04:46:42.016Z,140
2018-09-15T04:47:41.771Z,152
2018-09-15T04:48:42.056Z,164
2018-09-15T04:49:56.737Z,176
2018-09-15T04:50:41.840Z,184
2018-09-15T04:51:56.781Z,196
2018-09-15T04:52:42.526Z,204
2018-09-15T04:53:42.163Z,216
2018-09-15T04:54:42.184Z,228
2018-09-15T04:55:42.210Z,236
2018-09-15T04:56:41.966Z,252
2018-09-15T04:57:56.904Z,264
2018-09-15T04:58:42.570Z,280
2018-09-15T04:59:42.282Z,300
2018-09-15T05:00:42.045Z,324
2018-09-15T05:01:57.008Z,340
2018-09-15T05:02:42.104Z,348
2018-09-15T05:03:42.366Z,360
2018-09-15T05:04:42.136Z,384
2018-09-15T05:05:42.405Z,404
2018-09-15T05:06:42.804Z,420
2018-09-15T05:07:42.190Z,424
2018-09-15T05:08:42.484Z,440
2018-09-15T05:09:42.238Z,468
2018-09-15T05:10:42.509Z,504
2018-09-15T05:11:42.537Z,560
2018-09-15T05:12:42.976Z,588
2018-09-15T05:13:42.335Z,628
2018-09-15T05:14:42.613Z,696
2018-09-15T05:15:42.621Z,760
2018-09-15T05:16:57.308Z,836
2018-09-15T05:17:42.658Z,884
2018-09-15T05:18:42.682Z,944
2018-09-15T05:19:42.192Z,1020
2018-09-15T05:20:42.730Z,1072
2018-09-15T05:21:57.406Z,1140
2018-09-15T05:22:57.425Z,1176
2018-09-15T05:23:57.447Z,1212
2018-09-15T05:24:42.812Z,1232
2018-09-15T05:26:42.852Z,1296
2018-09-15T05:27:42.873Z,1336
2018-09-15T05:28:42.899Z,1420
2018-09-15T05:29:42.919Z,1576
2018-09-15T05:30:42.948Z,1820
2018-09-15T05:31:43.377Z,2084
2018-09-15T05:32:42.976Z,2420
2018-09-15T05:33:42.998Z,2748
2018-09-15T05:34:42.246Z,3040
2018-09-15T05:35:43.038Z,3380
2018-09-15T05:36:43.061Z,3716
2018-09-15T05:37:57.750Z,3952
2018-09-15T05:38:43.102Z,4000
2018-09-15T05:39:42.870Z,4100
2018-09-15T05:40:42.887Z,4364
2018-09-15T05:42:43.189Z,4912
2018-09-15T05:43:43.211Z,5168
2018-09-15T05:44:43.233Z,5388
2018-09-15T05:45:43.255Z,5576
2018-09-15T05:46:57.943Z,5852
2018-09-15T05:47:43.295Z,6008
2018-09-15T05:48:57.975Z,6092
2018-09-15T05:49:43.618Z,6000
2018-09-15T05:50:43.393Z,5856
2018-09-15T05:51:43.383Z,5808
2018-09-15T05:52:43.148Z,5844
2018-09-15T05:53:57.569Z,5964
2018-09-15T05:54:43.190Z,6032
2018-09-15T05:55:43.472Z,5988
2018-09-15T05:56:43.496Z,5952
2018-09-15T05:57:43.515Z,5708
2018-09-15T05:58:43.537Z,11904
2018-09-15T05:59:43.560Z,6376
2018-09-15T06:00:43.869Z,5432
2018-09-15T06:01:44.093Z,5304
2018-09-15T06:02:43.640Z,5308
2018-09-15T06:03:43.386Z,5432
2018-09-15T06:04:43.667Z,5696
2018-09-15T06:05:43.173Z,6084
2018-09-15T06:06:58.440Z,6592
2018-09-15T06:07:43.626Z,6824
2018-09-15T06:08:43.758Z,7028
2018-09-15T06:10:58.208Z,7244
2018-09-15T06:11:43.565Z,7360
2018-09-15T06:12:43.841Z,7732
2018-09-15T06:13:43.735Z,8792
2018-09-15T06:14:58.557Z,25984
2018-09-15T06:15:58.051Z,27616
2018-09-15T06:17:58.616Z,27456
2018-09-15T06:18:58.379Z,29376
2018-09-15T06:19:43.999Z,28864
2018-09-15T06:20:43.766Z,29568
2018-09-15T06:21:44.050Z,28096
2018-09-15T06:22:43.819Z,25824
2018-09-15T06:23:58.758Z,28576
2018-09-15T06:24:58.777Z,28416
2018-09-15T06:25:58.804Z,29952
2018-09-15T06:26:44.667Z,29440
2018-09-15T06:27:44.297Z,31424
2018-09-15T06:28:58.879Z,33216
2018-09-15T06:29:44.242Z,35360
2018-09-15T06:30:44.259Z,38784
2018-09-15T06:32:44.058Z,39104
2018-09-15T06:33:44.342Z,38624
2018-09-15T06:34:44.262Z,38528
2018-09-15T06:35:44.132Z,37760
2018-09-15T06:36:44.414Z,37984
2018-09-15T06:37:44.284Z,37184
2018-09-15T06:38:44.465Z,40416
2018-09-15T06:39:44.492Z,40128
2018-09-15T06:40:44.528Z,40672
2018-09-15T06:41:44.596Z,40288
2018-09-15T06:42:44.313Z,41312
2018-09-15T06:43:44.599Z,42176
2018-09-15T06:44:44.629Z,40416
2018-09-15T06:45:44.832Z,39680
2018-09-15T06:47:44.708Z,41024
2018-09-15T06:48:44.736Z,42240
2018-09-15T06:49:44.247Z,45536
2018-09-15T06:50:59.190Z,48064
2018-09-15T06:51:44.818Z,48704
2018-09-15T06:52:44.850Z,48992
2018-09-15T06:53:45.120Z,49952
2018-09-15T06:54:44.900Z,50528
2018-09-15T06:55:44.966Z,49760
2018-09-15T06:56:59.635Z,51680
2018-09-15T06:57:45.040Z,51808
2018-09-15T06:58:59.416Z,53504
2018-09-15T06:59:44.793Z,54432
2018-09-15T07:00:45.187Z,56448
2018-09-15T07:01:45.110Z,58752
2018-09-15T07:02:45.137Z,59904
2018-09-15T07:03:45.160Z,59936
2018-09-15T07:04:44.927Z,59136
2018-09-15T07:05:45.215Z,60320
2018-09-15T07:06:45.244Z,62528
2018-09-15T07:07:45.114Z,62944
2018-09-15T07:08:59.968Z,65312
2018-09-15T07:09:45.333Z,66336
2018-09-15T07:10:45.367Z,64320
2018-09-15T07:11:45.391Z,65856
2018-09-15T07:13:00.191Z,67424
2018-09-15T07:13:45.049Z,66048
2018-09-15T07:14:45.226Z,64832
2018-09-15T07:15:44.992Z,65408
2018-09-15T07:17:45.573Z,63840
2018-09-15T07:18:45.601Z,63488
2018-09-15T07:19:45.631Z,62400
2018-09-15T07:21:00.324Z,64288
2018-09-15T07:21:45.694Z,63360
2018-09-15T07:23:00.384Z,64096
2018-09-15T07:23:45.754Z,64864
2018-09-15T07:24:45.784Z,64640
2018-09-15T07:25:45.613Z,64256
2018-09-15T07:26:45.848Z,64608
2018-09-15T07:27:45.614Z,64224
2018-09-15T07:29:00.569Z,67456
2018-09-15T07:29:45.680Z,66080
2018-09-15T07:30:45.966Z,65568
2018-09-15T07:31:46.169Z,64832
2018-09-15T07:33:00.692Z,62720
2018-09-15T07:33:46.058Z,67520
2018-09-15T07:34:46.309Z,71616
2018-09-15T07:35:46.122Z,68064
2018-09-15T07:37:00.816Z,68064
2018-09-15T07:37:46.653Z,69088
2018-09-15T07:38:46.218Z,64512
2018-09-15T07:39:46.255Z,63168
2018-09-15T07:40:46.280Z,67232
2018-09-15T07:41:46.318Z,67392
2018-09-15T07:42:46.078Z,63936
2018-09-15T07:45:01.068Z,63200
2018-09-15T07:45:46.432Z,60864
2018-09-15T07:46:46.472Z,63776
2018-09-15T07:48:46.275Z,61792
2018-09-15T07:49:46.562Z,63744
2018-09-15T07:50:46.326Z,63072
2018-09-15T07:51:46.954Z,63968
2018-09-15T07:52:46.657Z,64448
2018-09-15T07:53:46.682Z,62528
2018-09-15T07:54:46.709Z,65216
2018-09-15T07:55:46.746Z,62048
2018-09-15T07:56:46.771Z,56032
2018-09-15T07:57:47.016Z,61760
2018-09-15T07:58:46.578Z,63904
2018-09-15T08:00:01.634Z,60192
2018-09-15T08:00:46.898Z,57600
2018-09-15T08:01:46.938Z,53952
2018-09-15T08:02:46.699Z,52640
2018-09-15T08:03:46.736Z,52640
2018-09-15T08:04:47.019Z,55360
2018-09-15T08:05:47.058Z,55680
2018-09-15T08:06:46.821Z,55232
2018-09-15T08:07:46.856Z,54208
2018-09-15T08:08:46.888Z,53472
2018-09-15T08:10:01.580Z,53696
2018-09-15T08:10:46.690Z,53056
2018-09-15T08:12:01.910Z,52416
2018-09-15T08:12:47.106Z,54080
2018-09-15T08:13:47.039Z,53376
2018-09-15T08:15:47.356Z,54208
2018-09-15T08:16:47.387Z,51392
2018-09-15T08:18:02.082Z,49984
2018-09-15T08:19:02.164Z,46400
2018-09-15T08:20:47.770Z,47008
2018-09-15T08:21:47.542Z,49120
2018-09-15T08:22:47.578Z,48352
2018-09-15T08:23:47.601Z,44224
2018-09-15T08:24:47.633Z,36928
2018-09-15T08:25:47.172Z,46560
2018-09-15T08:26:47.698Z,45536
2018-09-15T08:28:47.494Z,46272
2018-09-15T08:29:47.782Z,44960
2018-09-15T08:30:47.809Z,42976
2018-09-15T08:32:02.777Z,44672
2018-09-15T08:33:47.920Z,43904
2018-09-15T08:35:02.597Z,42624
2018-09-15T08:35:47.971Z,39968
2018-09-15T08:36:48.005Z,21632
2018-09-15T08:37:48.078Z,40096
2018-09-15T08:38:47.809Z,39680
2018-09-15T08:39:47.835Z,37152
2018-09-15T08:40:48.109Z,39232
2018-09-15T08:42:02.807Z,37568
2018-09-15T08:42:48.176Z,35168
2018-09-15T08:43:48.236Z,34720
2018-09-15T08:44:47.977Z,34272
2018-09-15T08:45:48.254Z,35488
2018-09-15T08:46:48.288Z,34560
2018-09-15T08:48:03.084Z,31840
2018-09-15T08:48:48.359Z,29728
2018-09-15T08:50:03.042Z,26784
2018-09-15T08:50:47.632Z,25888
2018-09-15T08:51:48.435Z,25408
2018-09-15T08:53:48.506Z,23712
2018-09-15T08:54:48.272Z,24576
2018-09-15T08:56:03.285Z,24256
2018-09-15T08:57:03.244Z,23808
2018-09-15T08:57:48.615Z,23296
2018-09-15T08:58:48.646Z,22528
2018-09-15T08:59:48.667Z,22112
2018-09-15T09:00:48.703Z,8432
2018-09-15T09:01:48.470Z,23424
2018-09-15T09:02:48.243Z,23392
2018-09-15T09:04:03.460Z,23840
2018-09-15T09:06:03.509Z,24832
2018-09-15T09:06:48.876Z,24512
2018-09-15T09:07:48.901Z,23520
2018-09-15T09:08:48.932Z,23648
2018-09-15T09:09:48.965Z,23008
2018-09-15T09:10:48.743Z,22592
2018-09-15T09:12:03.681Z,20512
2018-09-15T09:12:49.051Z,15684
2018-09-15T09:13:49.076Z,23744
2018-09-15T09:14:49.106Z,23584
2018-09-15T09:15:48.877Z,23296
2018-09-15T09:16:48.909Z,23200
2018-09-15T09:17:48.937Z,21536
2018-09-15T09:18:48.964Z,21312
2018-09-15T09:20:04.397Z,21984
2018-09-15T09:20:49.281Z,22592
2018-09-15T09:22:03.980Z,23200
2018-09-15T09:22:49.342Z,23232
2018-09-15T09:23:49.372Z,10792
2018-09-15T09:24:49.141Z,23008
2018-09-15T09:25:49.621Z,22176
2018-09-15T09:26:49.983Z,20960
2018-09-15T09:27:49.483Z,19808
2018-09-15T09:28:49.521Z,20544
2018-09-15T09:29:49.289Z,19776
2018-09-15T09:30:49.317Z,20192
2018-09-15T09:32:04.317Z,20288
2018-09-15T09:32:49.373Z,19616
2018-09-15T09:33:49.658Z,19456
2018-09-15T09:35:19.016Z,18624
2018-09-15T09:35:49.719Z,9284
2018-09-15T09:37:04.409Z,8364
2018-09-15T09:37:49.774Z,18464
2018-09-15T09:38:49.545Z,7492
2018-09-15T09:39:49.836Z,17504
2018-09-15T09:40:49.868Z,13700
2018-09-15T09:41:49.890Z,8768
2018-09-15T09:42:49.921Z,19232
2018-09-15T09:43:49.949Z,10220
2018-09-15T09:44:49.977Z,19456
2018-09-15T09:45:49.746Z,19744
2018-09-15T09:46:50.031Z,18496
2018-09-15T09:47:50.201Z,19264
2018-09-15T09:48:50.187Z,18496
2018-09-15T09:49:50.117Z,9168
2018-09-15T09:50:49.888Z,8708
2018-09-15T09:51:49.973Z,8280
2018-09-15T09:52:50.261Z,17568
2018-09-15T09:53:49.971Z,17248
2018-09-15T09:55:04.919Z,8224
2018-09-15T09:55:50.285Z,15428
2018-09-15T09:56:50.106Z,16900
2018-09-15T09:57:50.341Z,8192
2018-09-15T09:58:50.368Z,16304
2018-09-15T09:59:50.398Z,9320
2018-09-15T10:00:50.167Z,13948
2018-09-15T10:01:50.469Z,18624
2018-09-15T10:02:50.487Z,18144
2018-09-15T10:03:49.991Z,18304
2018-09-15T10:04:50.534Z,9060
2018-09-15T10:05:50.301Z,8632
2018-09-15T10:07:05.369Z,16616
2018-09-15T10:07:50.707Z,16276
2018-09-15T10:08:50.667Z,13240
2018-09-15T10:09:50.156Z,16364
2018-09-15T10:10:50.715Z,16652
2018-09-15T10:11:50.728Z,16752
2018-09-15T10:12:50.500Z,9412
2018-09-15T10:13:50.833Z,6728
2018-09-15T10:14:50.915Z,6708
2018-09-15T10:16:50.610Z,8704
2018-09-15T10:17:50.904Z,9756
2018-09-15T10:18:50.660Z,16408
2018-09-15T10:19:51.063Z,7404
2018-09-15T10:20:50.979Z,16100
2018-09-15T10:21:51.057Z,15820
2018-09-15T10:23:05.692Z,8428
2018-09-15T10:23:50.796Z,15700
2018-09-15T10:25:05.744Z,17408
2018-09-15T10:28:05.310Z,15892
2018-09-15T10:28:50.938Z,16960
2018-09-15T10:29:50.957Z,17080
2018-09-15T10:31:05.956Z,14556
2018-09-15T10:31:51.011Z,12460
2018-09-15T10:32:51.300Z,11272
2018-09-15T10:33:51.325Z,9448
2018-09-15T10:34:50.834Z,14208
2018-09-15T10:35:51.375Z,15044
2018-09-15T10:36:51.148Z,9556
2018-09-15T10:37:51.177Z,8672
2018-09-15T10:39:06.119Z,9400
2018-09-15T10:39:51.481Z,9164
2018-09-15T10:41:06.172Z,8568
2018-09-15T10:41:51.285Z,13392
2018-09-15T10:42:51.561Z,12972
2018-09-15T10:43:51.592Z,9268
2018-09-15T10:44:51.363Z,8636
2018-09-15T10:46:06.080Z,8380
2018-09-15T10:46:51.943Z,8336
2018-09-15T10:47:51.750Z,9552
2018-09-15T10:49:06.127Z,11928
2018-09-15T10:50:06.412Z,12424
2018-09-15T10:50:51.517Z,10180
2018-09-15T10:51:51.287Z,9540
2018-09-15T10:52:51.571Z,9692
2018-09-15T10:53:51.599Z,9492
2018-09-15T10:55:21.202Z,9392
2018-09-15T10:55:51.904Z,8900
2018-09-15T10:56:51.942Z,7880
2018-09-15T10:57:51.958Z,10056
2018-09-15T10:58:52.059Z,9868
2018-09-15T11:00:51.995Z,9108
2018-09-15T11:01:51.840Z,7364
2018-09-15T11:02:52.087Z,9296
2018-09-15T11:04:06.871Z,9096
2018-09-15T11:04:52.185Z,9036
2018-09-15T11:05:52.441Z,9040
2018-09-15T11:06:52.301Z,8336
2018-09-15T11:07:52.222Z,8032
2018-09-15T11:08:52.246Z,9292
2018-09-15T11:10:06.413Z,9828
2018-09-15T11:10:52.041Z,9208
2018-09-15T11:11:52.325Z,7612
2018-09-15T11:12:52.354Z,7244
2018-09-15T11:13:52.730Z,7980
2018-09-15T11:14:52.142Z,8640
2018-09-15T11:15:52.168Z,8884
2018-09-15T11:16:52.450Z,7460
2018-09-15T11:17:51.956Z,7152
2018-09-15T11:18:52.501Z,8268
2018-09-15T11:19:52.534Z,7928
2018-09-15T11:20:52.296Z,7828
2018-09-15T11:21:52.580Z,7948
2018-09-15T11:22:52.250Z,7864
2018-09-15T11:23:52.372Z,7640
2018-09-15T11:24:52.392Z,7468
2018-09-15T11:25:52.419Z,7160
2018-09-15T11:26:52.450Z,7020
2018-09-15T11:28:07.391Z,6812
2018-09-15T11:28:52.672Z,6800
2018-09-15T11:29:52.264Z,6792
2018-09-15T11:30:52.291Z,6860
2018-09-15T11:31:52.574Z,7020
2018-09-15T11:32:52.601Z,7208
2018-09-15T11:33:52.910Z,5984
2018-09-15T11:34:52.914Z,7028
2018-09-15T11:35:52.676Z,7576
2018-09-15T11:36:52.958Z,7948
2018-09-15T11:38:53.107Z,7568
2018-09-15T11:39:53.035Z,7760
2018-09-15T11:40:52.805Z,9040
2018-09-15T11:42:07.755Z,7868
2018-09-15T11:42:52.860Z,7892
2018-09-15T11:43:52.718Z,7972
2018-09-15T11:45:07.829Z,7376
2018-09-15T11:45:53.188Z,7068
2018-09-15T11:46:52.956Z,6712
2018-09-15T11:47:53.128Z,6544
2018-09-15T11:49:07.944Z,6696
2018-09-15T11:49:53.035Z,6972
2018-09-15T11:50:53.336Z,8768
2018-09-15T11:52:53.386Z,7304
2018-09-15T11:53:53.747Z,7380
2018-09-15T11:54:53.422Z,7048
2018-09-15T11:55:53.447Z,6996
2018-09-15T11:56:53.212Z,6772
2018-09-15T11:58:07.900Z,6736
2018-09-15T11:58:53.521Z,6772
2018-09-15T12:00:08.348Z,6848
2018-09-15T12:01:08.234Z,6768
2018-09-15T12:01:53.680Z,6920
2018-09-15T12:02:53.621Z,7232
2018-09-15T12:03:53.661Z,7420
2018-09-15T12:04:53.681Z,7776
2018-09-15T12:05:53.448Z,8332
2018-09-15T12:06:53.733Z,8428
2018-09-15T12:08:53.781Z,8216
2018-09-15T12:09:53.804Z,8100
2018-09-15T12:11:08.495Z,7600
2018-09-15T12:11:53.863Z,7124
2018-09-15T12:12:53.886Z,6456
2018-09-15T12:14:08.683Z,5720
2018-09-15T12:15:08.697Z,5380
2018-09-15T12:15:53.952Z,5292
2018-09-15T12:16:53.724Z,5500
2018-09-15T12:17:53.747Z,5896
2018-09-15T12:18:54.034Z,6080
2018-09-15T12:19:53.804Z,6032
2018-09-15T12:20:54.091Z,6212
2018-09-15T12:21:54.076Z,6576
2018-09-15T12:22:54.153Z,6904
2018-09-15T12:23:54.211Z,7000
2018-09-15T12:24:54.190Z,6676
2018-09-15T12:25:53.955Z,6608
2018-09-15T12:26:53.983Z,7708
2018-09-15T12:27:54.508Z,6880
2018-09-15T12:28:54.287Z,7132
2018-09-15T12:30:08.975Z,7128
2018-09-15T12:31:09.000Z,7316
2018-09-15T12:32:09.023Z,7200
2018-09-15T12:32:54.392Z,6784
2018-09-15T12:33:54.416Z,6744
2018-09-15T12:35:54.463Z,8092
2018-09-15T12:36:54.492Z,7956
2018-09-15T12:38:09.177Z,7568
2018-09-15T12:39:09.210Z,7612
2018-09-15T12:39:54.568Z,7824
2018-09-15T12:40:54.596Z,8128
2018-09-15T12:41:54.618Z,8704
2018-09-15T12:42:54.656Z,9040
2018-09-15T12:43:54.672Z,10332
2018-09-15T12:45:24.215Z,8984
2018-09-15T12:45:54.467Z,8972
2018-09-15T12:46:54.745Z,8836
2018-09-15T12:47:54.776Z,8556
2018-09-15T12:48:54.802Z,8156
2018-09-15T12:50:54.844Z,7912
2018-09-15T12:51:54.792Z,7748
2018-09-15T12:53:54.669Z,8108
2018-09-15T12:55:09.613Z,8088
2018-09-15T12:55:54.722Z,7980
2018-09-15T12:56:55.000Z,8112
2018-09-15T12:57:55.320Z,8272
2018-09-15T12:58:55.052Z,8456
2018-09-15T12:59:55.076Z,8328
2018-09-15T13:01:54.878Z,8572
2018-09-15T13:02:55.153Z,8616
2018-09-15T13:03:55.179Z,8776
2018-09-15T13:05:55.233Z,8780
2018-09-15T13:06:55.260Z,8532
2018-09-15T13:07:55.283Z,8252
2018-09-15T13:08:55.314Z,8152
2018-09-15T13:10:09.993Z,8240
2018-09-15T13:10:55.366Z,8284
2018-09-15T13:11:55.124Z,8192
2018-09-15T13:12:55.411Z,8096
2018-09-15T13:13:55.177Z,8092
2018-09-15T13:14:55.678Z,7932
2018-09-15T13:15:55.493Z,7716
2018-09-15T13:17:09.660Z,7428
2018-09-15T13:17:55.536Z,7376
2018-09-15T13:20:55.621Z,7144
2018-09-15T13:21:55.637Z,7072
2018-09-15T13:22:55.665Z,6968
2018-09-15T13:23:55.969Z,6924
2018-09-15T13:24:55.719Z,6860
2018-09-15T13:25:55.740Z,6632
2018-09-15T13:27:10.174Z,6328
2018-09-15T13:27:55.538Z,6144
2018-09-15T13:28:55.914Z,5872
2018-09-15T13:30:11.136Z,5548
2018-09-15T13:31:55.641Z,5188
2018-09-15T13:33:10.320Z,4960
2018-09-15T13:34:10.607Z,4840
2018-09-15T13:34:55.969Z,4764
2018-09-15T13:35:56.016Z,4660
2018-09-15T13:36:55.762Z,4680
2018-09-15T13:37:56.485Z,4820
2018-09-15T13:38:56.070Z,4996
2018-09-15T13:39:56.099Z,5308
2018-09-15T13:41:10.789Z,5604
2018-09-15T13:41:55.885Z,5680
2018-09-15T13:42:56.173Z,5808
2018-09-15T13:43:56.203Z,5916
2018-09-15T13:44:56.221Z,5988
2018-09-15T13:45:56.266Z,5944
2018-09-15T13:47:56.041Z,6164
2018-09-15T13:49:10.978Z,6176
2018-09-15T13:50:11.011Z,6136
2018-09-15T13:50:56.373Z,6076
2018-09-15T13:51:56.410Z,6112
2018-09-15T13:53:56.450Z,6332
2018-09-15T13:54:56.481Z,6380
2018-09-15T13:56:56.533Z,6256
2018-09-15T13:57:56.548Z,6008
2018-09-15T13:58:56.907Z,5772
2018-09-15T13:59:56.600Z,5572
2018-09-15T14:00:56.625Z,6044
2018-09-15T14:01:56.651Z,7224
2018-09-15T14:02:56.675Z,6588
2018-09-15T14:03:56.709Z,6352
2018-09-15T14:05:11.524Z,6124
2018-09-15T14:06:11.413Z,6096
2018-09-15T14:07:56.847Z,6040
2018-09-15T14:08:56.829Z,6036
2018-09-15T14:09:56.860Z,6036
2018-09-15T14:11:56.905Z,6100
2018-09-15T14:13:11.332Z,5888
2018-09-15T14:13:56.957Z,5708
2018-09-15T14:14:56.976Z,5588
2018-09-15T14:15:56.744Z,5604
2018-09-15T14:16:57.155Z,5364
2018-09-15T14:17:57.053Z,5192
2018-09-15T14:18:57.083Z,5128
2018-09-15T14:20:26.434Z,5012
2018-09-15T14:20:57.129Z,4964
2018-09-15T14:21:57.154Z,4828
2018-09-15T14:22:57.236Z,4728
2018-09-15T14:23:56.946Z,4632
2018-09-15T14:24:57.284Z,4484